Portada
METAR-TAF:

METAR-TAF

Aeropuertos :

Gwadar, Pakistán

latitud: 25-13-59N, longitud: 062-19-46E, altitud: 29 m

METAR: falta

Hora: 10:48 (05:48 UTC)

Pronóstico

El informe se hizo hace 2 horas y 18 minutos, a las 03:30 UTC
Pronóstico válido del 25 a las 06 UTC al 26 a las 06 UTC
Viento 10 kt del oeste-suroeste con ráfagas de 20 kt
Visibilidad: 5000 m
Nubes dispersas a una altura de 3000 ft
Nubes dispersas a una altura de 10000 ft
calima
A partir de las 25 a las 1800 UTC
Viento 10 kt del suroeste
Visibilidad: 4000 m
Nubes dispersas a una altura de 3000 ft
Cielo nuboso a una altura de 10000 ft
calima

TAF: OPGD 250330Z 2506/2606 24010G20KT 5000 HZ SCT030 SCT100 FM251800 22010KT 4000 HZ SCT030 BKN100

Observaciones y pronósticos meteorológicos de más de 4000 aeropuertos (mensajes METAR y TAF).

Los puntos amarillos y rojos representan las estaciones disponibles.

Ponga el ratón en el punto deseado para ver el nombre de la estación.

Haga clic para ver las observaciones y los pronósticos meteorológicos.

Para cambiar el mapa : haga clic en los botones verdes con una cruz de color negro para hacer un zoom, en el botón verde con un guión para alejar o en las flechas verdes para mapas adyacentes.


METAR-TAF: